Time;durP1;ratioP1;P1;durP2;ratioP2;P2;SDS_P1;SDS_P2;PMS_P1;PMS_P2;Temp;Humidity;BMP_temperature;BMP_pressure;BME280_temperature;BME280_humidity;BME280_pressure;Samples;Min_cycle;Max_cycle;Signal;HPM_P1;HPM_P2
2023/09/03 00:01:13;;;;;;;;;;;17.20;99.90;;;;;;5087209;28;19921;-75
2023/09/03 00:03:40;;;;;;;;;;;17.10;99.90;;;;;;5086959;28;20107;-75
2023/09/03 00:06:06;;;;;;;;;;;17.10;99.90;;;;;;5086926;28;19920;-75
2023/09/03 00:08:34;;;;;;;;;;;17.00;99.90;;;;;;5086645;28;20207;-75
2023/09/03 00:11:01;;;;;;;;;;;17.00;99.90;;;;;;5087072;28;19920;-76
2023/09/03 00:13:28;;;;;;;;;;;17.00;99.90;;;;;;5086584;28;19926;-75
2023/09/03 00:15:54;;;;;;;;;;;16.90;99.90;;;;;;5086987;28;19920;-75
2023/09/03 00:18:21;;;;;;;;;;;16.90;99.90;;;;;;5086299;28;19927;-75
2023/09/03 00:20:57;;;;;;;;;;;16.90;99.90;;;;;;5086803;28;19951;-75
2023/09/03 00:23:24;;;;;;;;;;;16.90;99.90;;;;;;5086771;28;19987;-75
2023/09/03 00:25:52;;;;;;;;;;;16.90;99.90;;;;;;5086458;28;19987;-75
2023/09/03 00:28:18;;;;;;;;;;;16.80;99.90;;;;;;5086676;28;19983;-75
2023/09/03 00:30:45;;;;;;;;;;;16.80;99.90;;;;;;5086722;28;19920;-75
2023/09/03 00:33:11;;;;;;;;;;;16.80;99.90;;;;;;5086198;28;19920;-75
2023/09/03 00:35:40;;;;;;;;;;;16.80;99.90;;;;;;5085777;28;19955;-75
2023/09/03 00:38:07;;;;;;;;;;;16.80;99.90;;;;;;5086370;28;19951;-75
2023/09/03 00:40:37;;;;;;;;;;;16.70;99.90;;;;;;5086218;28;19920;-75
2023/09/03 00:43:05;;;;;;;;;;;16.70;99.90;;;;;;5086750;28;20167;-75
2023/09/03 00:45:32;;;;;;;;;;;16.70;99.90;;;;;;5086091;28;19927;-75
2023/09/03 00:47:58;;;;;;;;;;;16.70;99.90;;;;;;5086180;28;19926;-75
2023/09/03 00:50:25;;;;;;;;;;;16.70;99.90;;;;;;5086125;28;19921;-73
2023/09/03 00:52:52;;;;;;;;;;;16.60;99.90;;;;;;5086309;28;19920;-75
2023/09/03 00:55:19;;;;;;;;;;;16.60;99.90;;;;;;5085848;28;20396;-75
2023/09/03 00:57:45;;;;;;;;;;;16.60;99.90;;;;;;5086079;28;19927;-75
2023/09/03 01:00:14;;;;;;;;;;;16.50;99.90;;;;;;5086246;28;19926;-75
2023/09/03 01:02:44;;;;;;;;;;;16.50;99.90;;;;;;5085542;28;19992;-76
2023/09/03 01:05:10;;;;;;;;;;;16.50;99.90;;;;;;5085776;28;19920;-76
2023/09/03 01:07:37;;;;;;;;;;;16.40;99.90;;;;;;5085850;28;19987;-75
2023/09/03 01:10:04;;;;;;;;;;;16.40;99.90;;;;;;5085683;28;20258;-75
2023/09/03 01:12:36;;;;;;;;;;;16.40;99.90;;;;;;5085895;28;19920;-75
2023/09/03 01:15:05;;;;;;;;;;;16.40;99.90;;;;;;5085740;28;19920;-75
2023/09/03 01:17:41;;;;;;;;;;;16.40;99.90;;;;;;5082137;28;19920;-74
2023/09/03 01:20:10;;;;;;;;;;;16.30;99.90;;;;;;5085605;28;20168;-74
2023/09/03 01:22:43;;;;;;;;;;;16.30;99.90;;;;;;5085494;28;19924;-77
2023/09/03 01:25:17;;;;;;;;;;;16.30;99.90;;;;;;5086012;28;19991;-77
2023/09/03 01:27:51;;;;;;;;;;;16.20;99.90;;;;;;5085453;28;19983;-77
2023/09/03 01:30:19;;;;;;;;;;;16.20;99.90;;;;;;5085775;28;19947;-75
2023/09/03 01:32:47;;;;;;;;;;;16.20;99.90;;;;;;5084315;28;19932;-75
2023/09/03 01:35:14;;;;;;;;;;;16.20;99.90;;;;;;5085050;28;20207;-74
2023/09/03 01:37:41;;;;;;;;;;;16.10;99.90;;;;;;5084966;28;20203;-75
2023/09/03 01:40:09;;;;;;;;;;;16.10;99.90;;;;;;5085462;28;19924;-75
2023/09/03 01:42:35;;;;;;;;;;;16.10;99.90;;;;;;5085319;28;20123;-74
2023/09/03 01:45:02;;;;;;;;;;;16.10;99.90;;;;;;5085176;28;19920;-75
2023/09/03 01:47:34;;;;;;;;;;;16.10;99.90;;;;;;5084106;28;20111;-74
2023/09/03 01:50:03;;;;;;;;;;;16.10;99.90;;;;;;5084892;28;19924;-75
2023/09/03 01:52:35;;;;;;;;;;;16.10;99.90;;;;;;5084790;28;19920;-75
2023/09/03 01:55:04;;;;;;;;;;;16.10;99.90;;;;;;5085026;28;19952;-75
2023/09/03 01:57:33;;;;;;;;;;;16.00;99.90;;;;;;5084452;28;19928;-75
2023/09/03 02:00:03;;;;;;;;;;;16.00;99.90;;;;;;5084936;28;19943;-75
2023/09/03 02:02:31;;;;;;;;;;;16.00;99.90;;;;;;5084494;28;19927;-75
2023/09/03 02:04:58;;;;;;;;;;;16.00;99.90;;;;;;5084798;28;19927;-75
2023/09/03 02:07:24;;;;;;;;;;;16.00;99.90;;;;;;5084596;28;19983;-75
2023/09/03 02:09:51;;;;;;;;;;;16.00;99.90;;;;;;5084845;28;20003;-75
2023/09/03 02:12:23;;;;;;;;;;;15.90;99.90;;;;;;5084468;28;19926;-74
2023/09/03 02:14:50;;;;;;;;;;;15.90;99.90;;;;;;5084258;28;20208;-75
2023/09/03 02:17:19;;;;;;;;;;;15.90;99.90;;;;;;5084287;28;19962;-75
2023/09/03 02:19:48;;;;;;;;;;;15.80;99.90;;;;;;5084584;28;20151;-75
2023/09/03 02:22:15;;;;;;;;;;;15.80;99.90;;;;;;5084593;28;19927;-75
2023/09/03 02:24:41;;;;;;;;;;;15.80;99.90;;;;;;5084034;28;19928;-75
2023/09/03 02:27:08;;;;;;;;;;;15.80;99.90;;;;;;5083944;28;20093;-75
2023/09/03 02:29:35;;;;;;;;;;;15.80;99.90;;;;;;5084345;28;19924;-75
2023/09/03 02:32:02;;;;;;;;;;;15.80;99.90;;;;;;5083933;28;19979;-75
2023/09/03 02:34:28;;;;;;;;;;;15.80;99.90;;;;;;5084188;28;19921;-75
2023/09/03 02:36:56;;;;;;;;;;;15.70;99.90;;;;;;5084182;28;20115;-75
2023/09/03 02:39:23;;;;;;;;;;;15.70;99.90;;;;;;5084079;28;19927;-75
2023/09/03 02:41:50;;;;;;;;;;;15.70;99.90;;;;;;5083894;28;20290;-75
2023/09/03 02:44:16;;;;;;;;;;;15.70;99.90;;;;;;5084212;28;19927;-75
2023/09/03 02:46:43;;;;;;;;;;;15.70;99.90;;;;;;5083850;28;20174;-75
2023/09/03 02:49:10;;;;;;;;;;;15.60;99.90;;;;;;5084027;28;19988;-75
2023/09/03 02:51:36;;;;;;;;;;;15.60;99.90;;;;;;5084075;28;19962;-75
2023/09/03 02:54:04;;;;;;;;;;;15.60;99.90;;;;;;5083714;28;19921;-75
2023/09/03 02:56:31;;;;;;;;;;;15.60;99.90;;;;;;5083762;28;20141;-74
2023/09/03 02:58:58;;;;;;;;;;;15.60;99.90;;;;;;5083720;28;19991;-75
2023/09/03 03:01:25;;;;;;;;;;;15.60;99.90;;;;;;5083923;28;20115;-75
2023/09/03 03:03:51;;;;;;;;;;;15.50;99.90;;;;;;5083637;28;20212;-75
2023/09/03 03:06:18;;;;;;;;;;;15.40;99.90;;;;;;5083912;28;19927;-75
2023/09/03 03:08:45;;;;;;;;;;;15.40;99.90;;;;;;5083961;28;19927;-75
2023/09/03 03:11:16;;;;;;;;;;;15.40;99.90;;;;;;5083262;28;20146;-75
2023/09/03 03:13:43;;;;;;;;;;;15.40;99.90;;;;;;5083947;28;19984;-75
2023/09/03 03:16:11;;;;;;;;;;;15.40;99.90;;;;;;5083942;28;20131;-75
2023/09/03 03:18:38;;;;;;;;;;;15.30;99.90;;;;;;5070869;28;19956;-75
2023/09/03 03:21:06;;;;;;;;;;;15.20;99.90;;;;;;5079865;28;19921;-75
2023/09/03 03:23:32;;;;;;;;;;;15.10;99.90;;;;;;5083661;28;19969;-75
2023/09/03 03:25:59;;;;;;;;;;;15.10;99.90;;;;;;5083892;28;20123;-75
2023/09/03 03:28:27;;;;;;;;;;;15.10;99.90;;;;;;5083620;28;19920;-75
2023/09/03 03:30:53;;;;;;;;;;;15.10;99.90;;;;;;5083712;28;19942;-75
2023/09/03 03:33:20;;;;;;;;;;;15.10;99.90;;;;;;5075020;28;19921;-75
2023/09/03 03:35:47;;;;;;;;;;;15.10;99.90;;;;;;5069826;28;19927;-75
2023/09/03 03:38:13;;;;;;;;;;;15.10;99.90;;;;;;5063501;28;19921;-75
2023/09/03 03:40:40;;;;;;;;;;;15.10;99.90;;;;;;5063448;28;20119;-75
2023/09/03 03:43:06;;;;;;;;;;;15.10;99.90;;;;;;5063713;28;19921;-75
2023/09/03 03:45:34;;;;;;;;;;;15.10;99.90;;;;;;5063643;28;19921;-75
2023/09/03 03:48:01;;;;;;;;;;;15.10;99.90;;;;;;5070603;28;19984;-75
2023/09/03 03:50:29;;;;;;;;;;;15.10;99.90;;;;;;5075298;28;19984;-75
2023/09/03 03:52:56;;;;;;;;;;;15.10;99.90;;;;;;5083479;28;19927;-75
2023/09/03 03:55:22;;;;;;;;;;;15.10;99.90;;;;;;5083130;28;20222;-75
2023/09/03 03:57:49;;;;;;;;;;;15.10;99.90;;;;;;5083299;28;19921;-75
2023/09/03 04:00:16;;;;;;;;;;;15.00;99.90;;;;;;5083514;28;20301;-75
2023/09/03 04:02:44;;;;;;;;;;;15.00;99.90;;;;;;5068774;28;19921;-75
2023/09/03 04:05:11;;;;;;;;;;;15.00;99.90;;;;;;5075010;28;19921;-75
2023/09/03 04:07:38;;;;;;;;;;;15.10;99.90;;;;;;5083339;28;20084;-75
2023/09/03 04:10:05;;;;;;;;;;;15.00;99.90;;;;;;5083451;28;19955;-75
2023/09/03 04:12:31;;;;;;;;;;;15.10;99.90;;;;;;5086129;28;19921;-75
2023/09/03 04:14:58;;;;;;;;;;;15.10;99.90;;;;;;5086681;28;20111;-75
2023/09/03 04:17:25;;;;;;;;;;;15.10;99.90;;;;;;5081648;28;19921;-75
2023/09/03 04:19:54;;;;;;;;;;;15.00;99.90;;;;;;5078364;28;19920;-75
2023/09/03 04:22:21;;;;;;;;;;;15.00;99.90;;;;;;5086916;28;20093;-75
2023/09/03 04:24:47;;;;;;;;;;;15.00;99.90;;;;;;5086831;28;19920;-76
2023/09/03 04:27:14;;;;;;;;;;;15.00;99.90;;;;;;5086526;28;19983;-75
2023/09/03 04:29:41;;;;;;;;;;;15.00;99.90;;;;;;5086873;28;19988;-75
2023/09/03 04:32:07;;;;;;;;;;;15.00;99.90;;;;;;5086262;28;19992;-75
2023/09/03 04:34:34;;;;;;;;;;;15.00;99.90;;;;;;5086755;28;20085;-75
2023/09/03 04:37:02;;;;;;;;;;;15.00;99.90;;;;;;5086411;28;19980;-75
2023/09/03 04:39:28;;;;;;;;;;;15.00;99.90;;;;;;5086670;28;19921;-75
2023/09/03 04:41:56;;;;;;;;;;;15.00;99.90;;;;;;5086566;28;19966;-75
2023/09/03 04:44:22;;;;;;;;;;;15.00;99.90;;;;;;5086274;28;20283;-75
2023/09/03 04:46:49;;;;;;;;;;;15.00;99.90;;;;;;5086376;28;19920;-75
2023/09/03 04:49:16;;;;;;;;;;;14.90;99.90;;;;;;5076648;28;19988;-75
2023/09/03 04:51:42;;;;;;;;;;;14.80;99.90;;;;;;5066084;28;20204;-75
2023/09/03 04:54:10;;;;;;;;;;;14.70;99.90;;;;;;5066392;28;19963;-75
2023/09/03 04:56:37;;;;;;;;;;;14.70;99.90;;;;;;5065821;28;20119;-75
2023/09/03 04:59:04;;;;;;;;;;;14.70;99.90;;;;;;5065843;28;19983;-75
2023/09/03 05:01:30;;;;;;;;;;;14.70;99.90;;;;;;5066107;28;19920;-75
2023/09/03 05:03:57;;;;;;;;;;;14.70;99.90;;;;;;5072663;28;19927;-75
2023/09/03 05:06:24;;;;;;;;;;;14.70;99.90;;;;;;5066953;28;19929;-75
2023/09/03 05:08:50;;;;;;;;;;;14.70;99.90;;;;;;5066054;28;20018;-75
2023/09/03 05:11:19;;;;;;;;;;;14.70;99.90;;;;;;5066020;28;20092;-75
2023/09/03 05:13:46;;;;;;;;;;;14.80;99.90;;;;;;5065781;28;19921;-75
2023/09/03 05:16:12;;;;;;;;;;;14.70;99.90;;;;;;5065718;28;19927;-75
2023/09/03 05:18:39;;;;;;;;;;;14.80;99.90;;;;;;5068647;28;19988;-75
2023/09/03 05:21:06;;;;;;;;;;;14.80;99.90;;;;;;5082152;28;19920;-75
2023/09/03 05:23:33;;;;;;;;;;;14.80;99.90;;;;;;5085568;28;19963;-75
2023/09/03 05:25:59;;;;;;;;;;;14.80;99.90;;;;;;5085817;28;19926;-75
2023/09/03 05:28:28;;;;;;;;;;;14.80;99.90;;;;;;5085522;28;19958;-75
2023/09/03 05:30:54;;;;;;;;;;;14.80;99.90;;;;;;5083724;28;19999;-75
2023/09/03 05:33:21;;;;;;;;;;;14.90;99.90;;;;;;5073355;28;19975;-75
2023/09/03 05:35:48;;;;;;;;;;;14.90;99.90;;;;;;5079387;28;19987;-77
2023/09/03 05:38:14;;;;;;;;;;;14.90;99.90;;;;;;5084908;28;20220;-75
2023/09/03 05:40:41;;;;;;;;;;;14.90;99.90;;;;;;5085400;28;19983;-75
2023/09/03 05:43:08;;;;;;;;;;;14.90;99.90;;;;;;5085347;28;20107;-75
2023/09/03 05:45:36;;;;;;;;;;;15.00;99.90;;;;;;5085337;28;19921;-75
2023/09/03 05:48:02;;;;;;;;;;;15.00;99.90;;;;;;5080193;28;19920;-75
2023/09/03 05:50:30;;;;;;;;;;;15.00;99.90;;;;;;5076603;28;19920;-75
2023/09/03 05:52:57;;;;;;;;;;;15.00;99.90;;;;;;5085037;28;19920;-75
2023/09/03 05:55:23;;;;;;;;;;;15.00;99.90;;;;;;5084800;28;19920;-74
2023/09/03 05:57:53;;;;;;;;;;;15.00;99.90;;;;;;5084855;28;19921;-74
2023/09/03 06:00:19;;;;;;;;;;;15.00;99.90;;;;;;5084795;28;20279;-75
2023/09/03 06:02:48;;;;;;;;;;;15.00;99.90;;;;;;5073639;28;19988;-75
2023/09/03 06:05:15;;;;;;;;;;;15.10;99.90;;;;;;5076307;28;20150;-75
2023/09/03 06:07:42;;;;;;;;;;;15.10;99.90;;;;;;5084649;28;19920;-73
2023/09/03 06:10:08;;;;;;;;;;;15.10;99.90;;;;;;5079864;28;20230;-75
2023/09/03 06:12:35;;;;;;;;;;;15.10;99.90;;;;;;5064010;28;19984;-75
2023/09/03 06:15:02;;;;;;;;;;;15.20;99.90;;;;;;5064474;28;19921;-75
2023/09/03 06:17:29;;;;;;;;;;;15.20;99.90;;;;;;5067265;28;19966;-75
2023/09/03 06:19:57;;;;;;;;;;;15.30;99.90;;;;;;5076340;28;20156;-75
2023/09/03 06:22:23;;;;;;;;;;;15.30;99.90;;;;;;5084548;28;19983;-75
2023/09/03 06:24:50;;;;;;;;;;;15.40;99.90;;;;;;5044186;28;20231;-75
2023/09/03 06:27:17;;;;;;;;;;;15.40;99.90;;;;;;5044317;28;19921;-75
2023/09/03 06:29:43;;;;;;;;;;;15.50;99.90;;;;;;5044274;28;19921;-75
2023/09/03 06:32:10;;;;;;;;;;;15.50;99.90;;;;;;5060881;28;19920;-75
2023/09/03 06:34:36;;;;;;;;;;;15.60;99.90;;;;;;5071912;28;20111;-75
2023/09/03 06:37:07;;;;;;;;;;;15.60;99.90;;;;;;5063083;28;19925;-75
2023/09/03 06:39:33;;;;;;;;;;;15.60;99.90;;;;;;5061813;28;19964;-75
2023/09/03 06:42:00;;;;;;;;;;;15.70;99.90;;;;;;5062147;28;20104;-76
2023/09/03 06:44:27;;;;;;;;;;;15.80;99.90;;;;;;5062525;28;19984;-73
2023/09/03 06:46:53;;;;;;;;;;;15.90;99.90;;;;;;5043922;28;19996;-75
2023/09/03 06:49:20;;;;;;;;;;;15.80;99.90;;;;;;5073119;28;20200;-75
2023/09/03 06:51:47;;;;;;;;;;;15.80;99.90;;;;;;5068122;28;19920;-75
2023/09/03 06:54:14;;;;;;;;;;;15.90;99.90;;;;;;5083943;28;19992;-75
2023/09/03 06:56:41;;;;;;;;;;;16.00;99.90;;;;;;5072416;28;19943;-75
2023/09/03 06:59:08;;;;;;;;;;;16.00;99.90;;;;;;5063727;28;19921;-75
2023/09/03 07:01:34;;;;;;;;;;;16.10;99.90;;;;;;5063592;28;20190;-75
2023/09/03 07:04:01;;;;;;;;;;;16.10;99.90;;;;;;5071209;28;19921;-75
2023/09/03 07:06:27;;;;;;;;;;;16.20;99.90;;;;;;5063886;28;20097;-75
2023/09/03 07:08:54;;;;;;;;;;;16.30;99.90;;;;;;5063583;28;19988;-75
2023/09/03 07:11:22;;;;;;;;;;;16.30;99.90;;;;;;5063650;28;19983;-75
2023/09/03 07:13:49;;;;;;;;;;;16.40;99.90;;;;;;5063642;28;19988;-76
2023/09/03 07:16:15;;;;;;;;;;;16.50;99.90;;;;;;5063751;28;19943;-74
2023/09/03 07:18:42;;;;;;;;;;;16.60;99.90;;;;;;5071672;28;19984;-75
2023/09/03 07:21:08;;;;;;;;;;;16.70;99.90;;;;;;5080449;28;19920;-75
2023/09/03 07:23:35;;;;;;;;;;;16.80;99.90;;;;;;5083743;28;19927;-75
2023/09/03 07:26:03;;;;;;;;;;;16.90;99.90;;;;;;5083601;28;20141;-73
2023/09/03 07:28:31;;;;;;;;;;;17.00;99.90;;;;;;5083538;28;19921;-75
2023/09/03 07:30:58;;;;;;;;;;;17.10;99.90;;;;;;5083390;28;19992;-74
2023/09/03 07:33:24;;;;;;;;;;;17.10;99.90;;;;;;5071561;28;19991;-75
2023/09/03 07:35:53;;;;;;;;;;;17.20;99.90;;;;;;5067390;28;19927;-74
2023/09/03 07:38:28;;;;;;;;;;;17.30;99.90;;;;;;5064686;28;19932;-77
2023/09/03 07:40:55;;;;;;;;;;;17.30;99.90;;;;;;5059139;28;19921;-75
2023/09/03 07:43:22;;;;;;;;;;;17.40;99.90;;;;;;5061033;28;19927;-75
2023/09/03 07:45:50;;;;;;;;;;;17.50;99.90;;;;;;5065284;28;19920;-73
2023/09/03 07:48:17;;;;;;;;;;;17.50;99.90;;;;;;5074799;28;20267;-74
2023/09/03 07:50:43;;;;;;;;;;;17.60;99.90;;;;;;5080239;28;20306;-75
2023/09/03 07:53:10;;;;;;;;;;;17.80;99.90;;;;;;5087062;28;19992;-75
2023/09/03 07:55:36;;;;;;;;;;;17.90;99.90;;;;;;5087143;28;19991;-74
2023/09/03 07:58:03;;;;;;;;;;;18.00;99.90;;;;;;5086684;28;19920;-74
2023/09/03 08:00:30;;;;;;;;;;;18.00;99.90;;;;;;5073564;28;19927;-75
2023/09/03 08:02:58;;;;;;;;;;;18.10;99.90;;;;;;5066303;28;19966;-74
2023/09/03 08:05:24;;;;;;;;;;;18.20;99.90;;;;;;5066449;28;19920;-74
2023/09/03 08:07:51;;;;;;;;;;;18.30;99.90;;;;;;5066809;28;20116;-73
2023/09/03 08:10:18;;;;;;;;;;;18.30;99.90;;;;;;5066424;28;19927;-75
2023/09/03 08:12:44;;;;;;;;;;;18.40;99.90;;;;;;5066743;28;19952;-75
2023/09/03 08:15:11;;;;;;;;;;;18.40;99.90;;;;;;5066967;28;20097;-72
2023/09/03 08:17:38;;;;;;;;;;;18.50;99.90;;;;;;5062822;28;20260;-75
2023/09/03 08:20:06;;;;;;;;;;;18.60;99.90;;;;;;5056343;28;19921;-75
2023/09/03 08:22:33;;;;;;;;;;;18.70;99.90;;;;;;5046016;28;19921;-76
2023/09/03 08:25:00;;;;;;;;;;;18.80;99.90;;;;;;5046661;28;19984;-76
2023/09/03 08:27:26;;;;;;;;;;;18.90;99.90;;;;;;5046327;28;19921;-74
2023/09/03 08:29:53;;;;;;;;;;;19.00;99.90;;;;;;5046178;28;19921;-74
2023/09/03 08:32:19;;;;;;;;;;;19.10;99.90;;;;;;5055647;28;19921;-75
2023/09/03 08:34:46;;;;;;;;;;;19.20;99.90;;;;;;5066358;28;19920;-75
2023/09/03 08:37:14;;;;;;;;;;;19.30;99.90;;;;;;5065759;28;19921;-75
2023/09/03 08:39:40;;;;;;;;;;;19.50;99.90;;;;;;5066495;28;19921;-74
2023/09/03 08:42:07;;;;;;;;;;;19.60;99.90;;;;;;5066324;28;19927;-74
2023/09/03 08:44:36;;;;;;;;;;;19.70;99.90;;;;;;5066360;28;19920;-75
2023/09/03 08:47:04;;;;;;;;;;;19.80;99.90;;;;;;5066151;28;19920;-75
2023/09/03 08:49:31;;;;;;;;;;;19.80;99.90;;;;;;5066054;28;19995;-75
2023/09/03 08:51:58;;;;;;;;;;;19.90;99.90;;;;;;5066164;28;19920;-74
2023/09/03 08:54:26;;;;;;;;;;;20.10;99.90;;;;;;5066193;28;19922;-75
2023/09/03 08:56:52;;;;;;;;;;;20.10;99.90;;;;;;5065503;28;19921;-75
2023/09/03 08:59:19;;;;;;;;;;;20.20;99.90;;;;;;5065744;28;19928;-74
2023/09/03 09:01:45;;;;;;;;;;;20.30;99.90;;;;;;5065847;28;19983;-74
2023/09/03 09:04:12;;;;;;;;;;;20.40;99.90;;;;;;5065931;28;19924;-74
2023/09/03 09:06:41;;;;;;;;;;;20.40;99.90;;;;;;5065931;28;19921;-75
2023/09/03 09:09:09;;;;;;;;;;;20.50;99.90;;;;;;5065672;28;19925;-75
2023/09/03 09:11:39;;;;;;;;;;;20.60;99.90;;;;;;5065753;28;19980;-75
2023/09/03 09:14:09;;;;;;;;;;;20.60;99.90;;;;;;5064954;28;19920;-74
2023/09/03 09:16:36;;;;;;;;;;;20.70;99.90;;;;;;5065659;28;19920;-74
2023/09/03 09:19:03;;;;;;;;;;;20.70;99.90;;;;;;5065036;28;19921;-75
2023/09/03 09:21:30;;;;;;;;;;;20.80;99.90;;;;;;5065419;28;19928;-75
2023/09/03 09:24:00;;;;;;;;;;;20.80;99.90;;;;;;5065267;28;19984;-75
2023/09/03 09:26:30;;;;;;;;;;;20.80;99.90;;;;;;5065509;28;20119;-75
2023/09/03 09:28:59;;;;;;;;;;;20.90;99.90;;;;;;5065142;28;19942;-75
2023/09/03 09:31:33;;;;;;;;;;;21.00;99.90;;;;;;5065202;28;19992;-75
2023/09/03 09:34:01;;;;;;;;;;;21.00;99.90;;;;;;5065322;28;19921;-74
2023/09/03 09:36:27;;;;;;;;;;;21.00;99.90;;;;;;5064929;28;19987;-74
2023/09/03 09:38:53;;;;;;;;;;;21.10;99.90;;;;;;5065229;28;19921;-75
2023/09/03 09:41:27;;;;;;;;;;;21.10;99.90;;;;;;5065091;28;20327;-75
2023/09/03 09:43:53;;;;;;;;;;;21.20;99.90;;;;;;5065073;28;20212;-74
2023/09/03 09:46:28;;;;;;;;;;;21.20;99.90;;;;;;5065033;28;19921;-75
2023/09/03 09:48:56;;;;;;;;;;;21.20;99.90;;;;;;5064502;28;19927;-75
2023/09/03 09:51:22;;;;;;;;;;;21.30;99.90;;;;;;5064917;28;20128;-75
2023/09/03 09:53:54;;;;;;;;;;;21.40;99.90;;;;;;5064976;28;19920;-74
2023/09/03 09:56:21;;;;;;;;;;;21.40;99.90;;;;;;5064560;28;20213;-75
2023/09/03 09:58:47;;;;;;;;;;;21.50;99.90;;;;;;5064600;28;19927;-74
2023/09/03 10:01:14;;;;;;;;;;;21.50;99.90;;;;;;5064687;28;19921;-75
2023/09/03 10:03:43;;;;;;;;;;;21.60;99.90;;;;;;5064657;28;19956;-75
2023/09/03 10:06:10;;;;;;;;;;;21.60;99.90;;;;;;5063289;28;19927;-75
2023/09/03 10:08:36;;;;;;;;;;;21.70;99.90;;;;;;5063387;28;19963;-75
2023/09/03 10:11:03;;;;;;;;;;;21.90;99.90;;;;;;5064193;28;20260;-76
2023/09/03 10:13:30;;;;;;;;;;;21.90;99.90;;;;;;5063643;28;19921;-74
2023/09/03 10:15:57;;;;;;;;;;;22.00;99.90;;;;;;5064482;28;19929;-75
2023/09/03 10:18:25;;;;;;;;;;;22.10;99.90;;;;;;5064312;28;19966;-74
2023/09/03 10:20:56;;;;;;;;;;;22.20;99.90;;;;;;5064167;28;19991;-73
2023/09/03 10:23:23;;;;;;;;;;;22.20;99.90;;;;;;5064454;28;19920;-74
2023/09/03 10:25:50;;;;;;;;;;;22.30;99.90;;;;;;5064308;28;19963;-75
2023/09/03 10:28:22;;;;;;;;;;;22.30;99.90;;;;;;5064255;28;19983;-75
2023/09/03 10:30:52;;;;;;;;;;;22.40;99.90;;;;;;5064326;28;19920;-75
2023/09/03 10:33:18;;;;;;;;;;;22.50;99.90;;;;;;5063656;28;20204;-74
2023/09/03 10:36:00;;;;;;;;;;;22.60;99.90;;;;;;5064135;28;19984;-75
2023/09/03 10:38:33;;;;;;;;;;;22.60;99.90;;;;;;5063345;28;19943;-74
2023/09/03 10:41:16;;;;;;;;;;;22.60;99.90;;;;;;5063946;28;19959;-75
2023/09/03 10:43:42;;;;;;;;;;;22.70;99.90;;;;;;5064161;28;19997;-74
2023/09/03 10:46:09;;;;;;;;;;;22.70;99.90;;;;;;5064095;28;19927;-74
2023/09/03 10:48:36;;;;;;;;;;;22.70;99.90;;;;;;5063757;28;20106;-74
2023/09/03 10:51:03;;;;;;;;;;;22.60;99.90;;;;;;5063923;28;20010;-73
2023/09/03 10:53:37;;;;;;;;;;;22.60;99.90;;;;;;5063652;28;19920;-75
2023/09/03 10:56:14;;;;;;;;;;;22.60;99.90;;;;;;5063556;28;20257;-74
2023/09/03 10:58:54;;;;;;;;;;;22.60;99.90;;;;;;5063631;28;19928;-73
2023/09/03 11:01:22;;;;;;;;;;;22.70;99.90;;;;;;5063769;28;19959;-75
2023/09/03 11:03:49;;;;;;;;;;;22.80;99.90;;;;;;5063282;28;20241;-73
2023/09/03 11:06:18;;;;;;;;;;;22.90;99.90;;;;;;5063466;28;20111;-75
2023/09/03 11:08:46;;;;;;;;;;;23.00;99.90;;;;;;5063444;28;19920;-74
2023/09/03 11:11:18;;;;;;;;;;;23.20;99.90;;;;;;5063622;28;19921;-75
2023/09/03 11:13:48;;;;;;;;;;;23.20;99.90;;;;;;5063058;28;19920;-73
2023/09/03 11:16:15;;;;;;;;;;;23.20;99.90;;;;;;5063590;28;19920;-75
2023/09/03 11:18:47;;;;;;;;;;;23.10;99.90;;;;;;5067527;28;20037;-74
2023/09/03 11:21:13;;;;;;;;;;;23.10;99.90;;;;;;5083081;28;20309;-73
2023/09/03 11:23:40;;;;;;;;;;;23.20;99.90;;;;;;5083657;28;19927;-74
2023/09/03 11:26:14;;;;;;;;;;;23.30;99.90;;;;;;5083454;28;19920;-75
2023/09/03 11:28:45;;;;;;;;;;;23.40;99.90;;;;;;5083496;28;19983;-76
2023/09/03 11:31:12;;;;;;;;;;;23.50;99.90;;;;;;5083373;28;19983;-74
2023/09/03 11:33:39;;;;;;;;;;;23.60;99.90;;;;;;5066981;28;20112;-74
2023/09/03 11:36:05;;;;;;;;;;;23.70;99.90;;;;;;5063440;28;19927;-75
2023/09/03 11:38:33;;;;;;;;;;;23.80;99.90;;;;;;5063102;28;19921;-74
2023/09/03 11:41:00;;;;;;;;;;;23.90;99.90;;;;;;5063370;28;19927;-75
2023/09/03 11:43:29;;;;;;;;;;;23.80;99.90;;;;;;5063134;28;19944;-74
2023/09/03 11:45:56;;;;;;;;;;;23.70;99.90;;;;;;5062905;28;19924;-73
2023/09/03 11:48:26;;;;;;;;;;;23.60;99.90;;;;;;5063195;28;19927;-74
2023/09/03 11:50:53;;;;;;;;;;;23.70;99.90;;;;;;5063255;28;19927;-74
2023/09/03 11:53:20;;;;;;;;;;;23.80;99.90;;;;;;5063439;28;19927;-75
2023/09/03 11:55:48;;;;;;;;;;;23.80;99.90;;;;;;5063242;28;19927;-74
2023/09/03 11:58:16;;;;;;;;;;;23.80;99.90;;;;;;5062902;28;19999;-72
2023/09/03 12:00:44;;;;;;;;;;;23.80;99.90;;;;;;5063361;28;19921;-74
2023/09/03 12:03:11;;;;;;;;;;;23.80;99.90;;;;;;5063032;28;19921;-74
2023/09/03 12:05:38;;;;;;;;;;;23.80;99.90;;;;;;5063096;28;19935;-74
2023/09/03 12:08:06;;;;;;;;;;;23.80;99.90;;;;;;5062583;28;19952;-74
2023/09/03 12:10:33;;;;;;;;;;;23.90;99.90;;;;;;5062708;28;19921;-74
2023/09/03 12:13:03;;;;;;;;;;;24.00;99.90;;;;;;5062150;28;19988;-74
2023/09/03 12:15:31;;;;;;;;;;;24.10;99.90;;;;;;5062913;28;19952;-75
2023/09/03 12:18:08;;;;;;;;;;;24.20;99.90;;;;;;5062352;28;20184;-74
2023/09/03 12:20:35;;;;;;;;;;;24.30;99.90;;;;;;5062696;28;19921;-75
2023/09/03 12:23:09;;;;;;;;;;;24.50;99.90;;;;;;5062917;28;19928;-74
2023/09/03 12:25:36;;;;;;;;;;;24.50;99.90;;;;;;5062952;28;19988;-74
2023/09/03 12:28:04;;;;;;;;;;;24.50;99.90;;;;;;5062712;28;19952;-75
2023/09/03 12:30:46;;;;;;;;;;;24.50;99.90;;;;;;5063004;28;19928;-74
2023/09/03 12:33:25;;;;;;;;;;;24.60;99.90;;;;;;5064512;28;19920;-74
2023/09/03 12:36:10;;;;;;;;;;;24.60;99.90;;;;;;5066342;28;20215;-74
2023/09/03 12:39:04;;;;;;;;;;;24.70;99.90;;;;;;5065905;28;19928;-74
2023/09/03 12:41:34;;;;;;;;;;;24.80;99.90;;;;;;5018953;28;19921;-75
2023/09/03 12:44:04;;;;;;;;;;;24.80;99.90;;;;;;5066205;28;19956;-75
2023/09/03 12:46:33;;;;;;;;;;;24.80;99.90;;;;;;5066292;28;19927;-75
2023/09/03 12:49:01;;;;;;;;;;;24.80;99.90;;;;;;5065734;28;19952;-74
2023/09/03 12:51:27;;;;;;;;;;;24.80;99.90;;;;;;5065783;28;20222;-75
2023/09/03 12:53:54;;;;;;;;;;;24.80;99.90;;;;;;5065843;28;19927;-74
2023/09/03 12:56:20;;;;;;;;;;;24.80;99.90;;;;;;5066086;28;20119;-74
2023/09/03 12:58:47;;;;;;;;;;;25.00;99.90;;;;;;5065700;28;19960;-74
2023/09/03 13:03:56;;;;;;;;;;;25.40;99.90;;;;;;5063758;28;19917;-73
2023/09/03 13:06:24;;;;;;;;;;;25.40;99.90;;;;;;5065962;28;19925;-74
2023/09/03 13:08:51;;;;;;;;;;;25.50;99.90;;;;;;5065726;28;19921;-75
2023/09/03 13:11:18;;;;;;;;;;;25.50;99.90;;;;;;5065733;28;19920;-75
2023/09/03 13:17:03;;;;;;;;;;;25.70;99.90;;;;;;5075604;28;19931;-73
2023/09/03 13:19:32;;;;;;;;;;;25.70;99.90;;;;;;5066373;28;19984;-73
2023/09/03 13:22:00;;;;;;;;;;;25.70;99.90;;;;;;5065593;28;19988;-73
2023/09/03 13:24:27;;;;;;;;;;;25.80;99.90;;;;;;5066036;28;19993;-73
2023/09/03 13:26:53;;;;;;;;;;;25.70;99.90;;;;;;5065616;28;20208;-74
2023/09/03 13:29:20;;;;;;;;;;;25.80;99.90;;;;;;5065609;28;19927;-73
2023/09/03 13:31:47;;;;;;;;;;;25.80;99.90;;;;;;5065395;28;19991;-73
2023/09/03 13:34:14;;;;;;;;;;;25.70;99.90;;;;;;5065721;28;19948;-73
2023/09/03 13:36:40;;;;;;;;;;;25.50;99.90;;;;;;5065501;28;19921;-73
2023/09/03 13:39:08;;;;;;;;;;;25.40;99.90;;;;;;5065446;28;19928;-73
2023/09/03 13:41:35;;;;;;;;;;;25.30;99.90;;;;;;5065539;28;19988;-73
2023/09/03 13:44:01;;;;;;;;;;;25.30;99.90;;;;;;5065363;28;19927;-74
2023/09/03 13:46:29;;;;;;;;;;;25.50;99.90;;;;;;5064962;28;20235;-74
2023/09/03 13:48:55;;;;;;;;;;;25.50;99.90;;;;;;5065117;28;19956;-75
2023/09/03 13:51:22;;;;;;;;;;;25.60;99.90;;;;;;5065282;28;20112;-73
2023/09/03 13:53:53;;;;;;;;;;;25.60;99.90;;;;;;5065458;28;19984;-73
2023/09/03 13:56:21;;;;;;;;;;;25.70;99.90;;;;;;5065262;28;19943;-74
2023/09/03 13:58:47;;;;;;;;;;;25.70;99.90;;;;;;5064977;28;19987;-73
2023/09/03 14:01:14;;;;;;;;;;;25.60;99.90;;;;;;5065164;28;19920;-73
2023/09/03 14:03:41;;;;;;;;;;;25.60;99.90;;;;;;5065109;28;20107;-73
2023/09/03 14:06:07;;;;;;;;;;;25.70;99.90;;;;;;5065116;28;19921;-73
2023/09/03 14:08:34;;;;;;;;;;;25.80;99.90;;;;;;5064906;28;19989;-74
2023/09/03 14:17:36;;;;;;;;;;;25.70;99.90;;;;;;5064591;28;19935;-73
2023/09/03 14:20:04;;;;;;;;;;;25.60;99.90;;;;;;5064408;28;19921;-73
2023/09/03 14:22:31;;;;;;;;;;;25.70;99.90;;;;;;5064784;28;20149;-73
2023/09/03 14:24:57;;;;;;;;;;;25.60;99.90;;;;;;5064792;28;19967;-73
2023/09/03 14:27:25;;;;;;;;;;;25.70;99.90;;;;;;5064561;28;19921;-73
2023/09/03 14:29:51;;;;;;;;;;;25.90;99.90;;;;;;5064591;28;19927;-73
2023/09/03 14:32:18;;;;;;;;;;;25.90;99.90;;;;;;5064363;28;20119;-73